Time;durP1;ratioP1;P1;durP2;ratioP2;P2;SDS_P1;SDS_P2;PMS_P1;PMS_P2;Temp;Humidity;BMP_temperature;BMP_pressure;BME280_temperature;BME280_humidity;BME280_pressure;Samples;Min_cycle;Max_cycle;Signal;HPM_P1;HPM_P2
2023/03/02 00:00:59;;;;;;;399.17;256.07;;;;;;;0.72;100.00;102900.50;4998117;28;20477;-48
2023/03/02 00:03:27;;;;;;;348.37;249.40;;;;;;;0.63;100.00;102897.53;4997687;28;20470;-46
2023/03/02 00:05:56;;;;;;;289.50;244.43;;;;;;;0.68;100.00;102903.38;4998555;28;20466;-47
2023/03/02 00:08:24;;;;;;;388.63;254.23;;;;;;;0.68;100.00;102911.25;4998183;28;20434;-43
2023/03/02 00:10:53;;;;;;;371.23;245.03;;;;;;;0.71;100.00;102911.09;4998494;28;20430;-46
2023/03/02 00:13:21;;;;;;;491.63;262.70;;;;;;;0.71;100.00;102911.09;4997833;28;20489;-43
2023/03/02 00:15:49;;;;;;;345.63;248.27;;;;;;;0.67;100.00;102906.91;4998354;28;20434;-46
2023/03/02 00:18:17;;;;;;;317.37;230.70;;;;;;;0.68;100.00;102908.63;4998764;28;20442;-46
2023/03/02 00:20:45;;;;;;;307.30;241.57;;;;;;;0.68;100.00;102906.00;4987802;28;20456;-46
2023/03/02 00:23:12;;;;;;;251.27;221.43;;;;;;;0.76;100.00;102901.19;4977765;28;20466;-43
2023/03/02 00:25:40;;;;;;;286.87;224.40;;;;;;;0.75;100.00;102900.31;4978769;28;21047;-43
2023/03/02 00:28:09;;;;;;;347.73;236.20;;;;;;;0.73;100.00;102899.56;4978581;28;20479;-45
2023/03/02 00:30:38;;;;;;;353.13;231.93;;;;;;;0.76;100.00;102893.31;4981436;28;20538;-47
2023/03/02 00:33:05;;;;;;;248.87;222.50;;;;;;;0.67;100.00;102893.78;4980962;28;20927;-44
2023/03/02 00:35:37;;;;;;;328.63;247.73;;;;;;;0.75;100.00;102887.19;4981773;28;20431;-49
2023/03/02 00:38:06;;;;;;;304.90;228.70;;;;;;;0.74;100.00;102888.16;4982407;28;20431;-46
2023/03/02 00:40:34;;;;;;;232.10;209.87;;;;;;;0.81;100.00;102888.66;4981774;28;20455;-44
2023/03/02 00:43:02;;;;;;;242.63;212.47;;;;;;;0.83;100.00;102885.03;4981883;28;20459;-43
2023/03/02 00:45:31;;;;;;;322.90;219.50;;;;;;;0.85;100.00;102884.94;4981140;28;20695;-48
2023/03/02 00:47:59;;;;;;;237.87;218.03;;;;;;;0.87;100.00;102875.19;4982556;28;20940;-46
2023/03/02 00:50:27;;;;;;;437.37;251.37;;;;;;;0.90;100.00;102870.63;4982532;28;20435;-43
2023/03/02 00:52:54;;;;;;;237.40;213.00;;;;;;;0.87;100.00;102870.78;4981963;28;20466;-43
2023/03/02 00:55:22;;;;;;;240.57;212.57;;;;;;;0.85;100.00;102866.56;4982322;28;20449;-47
2023/03/02 00:57:54;;;;;;;252.73;214.13;;;;;;;0.77;100.00;102868.75;4982529;28;20427;-44
2023/03/02 01:00:23;;;;;;;324.30;229.27;;;;;;;0.70;100.00;102875.25;4982663;28;20422;-43
2023/03/02 01:02:52;;;;;;;304.93;229.13;;;;;;;0.71;100.00;102869.06;4981583;28;20458;-44
2023/03/02 01:05:20;;;;;;;282.57;228.80;;;;;;;0.72;100.00;102878.66;4982568;28;20505;-45
2023/03/02 01:07:48;;;;;;;238.13;215.30;;;;;;;0.70;100.00;102870.84;4982459;28;20439;-48
2023/03/02 01:10:16;;;;;;;301.37;238.23;;;;;;;0.65;100.00;102864.16;4982686;28;20486;-46
2023/03/02 01:12:44;;;;;;;409.07;243.87;;;;;;;0.66;100.00;102865.84;4981525;28;20461;-44
2023/03/02 01:15:12;;;;;;;291.80;232.10;;;;;;;0.61;100.00;102858.19;4981347;28;20427;-43
2023/03/02 01:17:41;;;;;;;276.47;243.43;;;;;;;0.55;100.00;102859.38;4981908;28;20441;-44
2023/03/02 01:20:12;;;;;;;261.40;232.60;;;;;;;0.53;100.00;102858.63;4981591;28;20505;-45
2023/03/02 01:22:39;;;;;;;259.10;229.30;;;;;;;0.51;100.00;102847.34;4980982;28;20482;-48
2023/03/02 01:25:08;;;;;;;325.80;233.70;;;;;;;0.50;100.00;102853.53;4981754;28;20483;-43
2023/03/02 01:27:35;;;;;;;262.43;219.33;;;;;;;0.57;100.00;102842.72;4981481;28;20505;-47
2023/03/02 01:30:03;;;;;;;235.83;213.27;;;;;;;0.61;100.00;102849.47;4981314;28;20435;-46
2023/03/02 01:32:31;;;;;;;242.50;219.63;;;;;;;0.62;100.00;102851.19;4981656;28;20450;-43
2023/03/02 01:34:59;;;;;;;252.87;214.87;;;;;;;0.63;100.00;102845.84;4998790;28;20536;-44
2023/03/02 01:37:28;;;;;;;283.83;222.77;;;;;;;0.68;100.00;102849.09;5000958;28;20928;-44
2023/03/02 01:39:56;;;;;;;317.27;229.33;;;;;;;0.63;100.00;102847.63;5000509;28;20852;-45
2023/03/02 01:42:23;;;;;;;453.27;248.83;;;;;;;0.61;100.00;102842.44;5000054;28;20450;-46
2023/03/02 01:44:55;;;;;;;374.20;255.60;;;;;;;0.46;100.00;102844.09;4999388;28;20477;-47
2023/03/02 01:47:26;;;;;;;507.60;258.07;;;;;;;0.38;100.00;102835.78;5000620;28;20466;-48
2023/03/02 01:49:58;;;;;;;399.70;247.53;;;;;;;0.39;100.00;102829.59;5000969;28;20429;-46
2023/03/02 01:52:29;;;;;;;307.27;234.20;;;;;;;0.37;100.00;102831.47;5000687;28;20466;-44
2023/03/02 01:54:59;;;;;;;268.17;245.93;;;;;;;0.39;100.00;102834.84;4999786;28;20458;-45
2023/03/02 01:57:30;;;;;;;262.47;234.93;;;;;;;0.44;100.00;102824.97;5000304;28;20453;-46
2023/03/02 02:00:05;;;;;;;250.73;225.77;;;;;;;0.50;100.00;102824.66;5000338;28;20438;-50
2023/03/02 02:02:33;;;;;;;444.40;256.20;;;;;;;0.54;100.00;102827.94;5000591;28;20444;-46
2023/03/02 02:05:02;;;;;;;329.60;235.67;;;;;;;0.48;100.00;102826.50;4999847;28;20598;-43
2023/03/02 02:07:31;;;;;;;245.30;224.43;;;;;;;0.51;100.00;102826.31;5000277;28;20445;-45
2023/03/02 02:10:01;;;;;;;421.77;250.23;;;;;;;0.55;100.00;102821.78;4999707;28;20434;-44
2023/03/02 02:12:28;;;;;;;300.80;233.73;;;;;;;0.57;100.00;102828.63;4999688;28;20453;-46
2023/03/02 02:14:59;;;;;;;256.43;228.37;;;;;;;0.60;100.00;102824.16;4999349;28;20462;-51
2023/03/02 02:17:29;;;;;;;327.03;238.20;;;;;;;0.57;100.00;102827.78;5000047;28;20544;-46
2023/03/02 02:20:13;;;;;;;312.33;218.40;;;;;;;0.60;100.00;102829.41;5000282;28;20438;-49
2023/03/02 02:22:53;;;;;;;240.50;214.10;;;;;;;0.61;100.00;102812.72;4999728;28;20470;-44
2023/03/02 02:25:43;;;;;;;410.40;243.93;;;;;;;0.60;100.00;102811.88;4980416;28;20471;-48
2023/03/02 02:28:18;;;;;;;505.13;260.17;;;;;;;0.48;100.00;102813.38;4980738;28;20425;-48
2023/03/02 02:30:49;;;;;;;289.37;227.10;;;;;;;0.42;100.00;102820.72;4980343;28;20449;-43
2023/03/02 02:33:23;;;;;;;297.33;233.47;;;;;;;0.40;100.00;102817.34;4979635;28;20482;-44
2023/03/02 02:36:01;;;;;;;264.67;228.03;;;;;;;0.36;100.00;102819.25;4980113;28;20427;-47
2023/03/02 02:38:30;;;;;;;261.90;229.40;;;;;;;0.23;100.00;102814.75;4980554;28;20529;-48
2023/03/02 02:41:01;;;;;;;336.27;233.20;;;;;;;0.20;100.00;102809.66;4980309;28;20493;-49
2023/03/02 02:43:32;;;;;;;366.63;229.60;;;;;;;0.10;100.00;102811.91;4980132;28;20485;-46
2023/03/02 02:46:01;;;;;;;291.97;226.40;;;;;;;0.03;100.00;102797.38;4980299;28;20524;-45
2023/03/02 02:48:32;;;;;;;431.53;241.17;;;;;;;-0.04;100.00;102802.13;4980287;28;20445;-44
2023/03/02 02:51:01;;;;;;;456.43;244.00;;;;;;;0.01;100.00;102796.63;4979969;28;20462;-43
2023/03/02 02:53:38;;;;;;;291.60;220.00;;;;;;;0.03;100.00;102794.78;4979058;28;20458;-44
2023/03/02 02:56:09;;;;;;;409.33;229.13;;;;;;;0.04;100.00;102793.00;4979283;28;20453;-46
2023/03/02 02:58:43;;;;;;;325.20;216.90;;;;;;;-0.13;100.00;102786.88;4980033;28;20821;-44
2023/03/02 03:01:14;;;;;;;379.57;221.23;;;;;;;-0.12;100.00;102780.66;4980372;28;20937;-43
2023/03/02 03:03:50;;;;;;;311.57;222.77;;;;;;;-0.10;100.00;102784.09;4979978;28;20619;-47
2023/03/02 03:06:19;;;;;;;345.53;221.47;;;;;;;-0.19;100.00;102778.44;4979432;28;20557;-46
2023/03/02 03:08:57;;;;;;;417.80;232.23;;;;;;;-0.30;100.00;102786.03;4979673;28;20481;-44
2023/03/02 03:11:27;;;;;;;424.37;251.73;;;;;;;-0.33;100.00;102784.38;4979718;28;20449;-43
2023/03/02 03:14:04;;;;;;;585.90;250.97;;;;;;;-0.31;100.00;102795.66;4979075;28;20482;-47
2023/03/02 03:16:33;;;;;;;339.57;219.03;;;;;;;-0.37;100.00;102787.25;4979205;28;20877;-45
2023/03/02 03:19:07;;;;;;;364.00;209.57;;;;;;;-0.37;100.00;102785.47;4979426;28;20490;-44
2023/03/02 03:21:35;;;;;;;238.57;192.50;;;;;;;-0.41;100.00;102777.81;4979261;28;20510;-44
2023/03/02 03:24:03;;;;;;;331.73;198.47;;;;;;;-0.34;100.00;102773.97;4978674;28;20463;-44
2023/03/02 03:26:31;;;;;;;211.03;186.60;;;;;;;-0.38;100.00;102777.66;4979715;28;20471;-46
2023/03/02 03:29:01;;;;;;;404.17;205.37;;;;;;;-0.39;100.00;102784.72;4979531;28;20805;-43
2023/03/02 03:31:29;;;;;;;273.57;180.10;;;;;;;-0.38;100.00;102780.28;4979065;28;20537;-46
2023/03/02 03:33:59;;;;;;;263.10;165.30;;;;;;;-0.39;100.00;102787.34;4978562;28;20470;-47
2023/03/02 03:36:28;;;;;;;237.83;164.63;;;;;;;-0.42;100.00;102789.25;4979672;28;20529;-47
2023/03/02 03:38:56;;;;;;;355.13;158.13;;;;;;;-0.48;100.00;102790.41;4978776;28;20443;-43
2023/03/02 03:41:25;;;;;;;218.50;130.67;;;;;;;-0.50;100.00;102788.75;4979486;28;20451;-45
2023/03/02 03:43:53;;;;;;;203.67;121.70;;;;;;;-0.51;100.00;102781.84;4978154;28;20518;-46
2023/03/02 03:46:22;;;;;;;160.53;115.43;;;;;;;-0.48;100.00;102784.31;4979200;28;20892;-44
2023/03/02 03:48:49;;;;;;;205.47;122.33;;;;;;;-0.48;100.00;102779.06;4978996;28;20443;-45
2023/03/02 03:51:17;;;;;;;140.57;124.03;;;;;;;-0.50;100.00;102788.75;4979032;28;20818;-44
2023/03/02 03:53:45;;;;;;;174.57;124.73;;;;;;;-0.54;100.00;102784.63;4979185;28;20458;-45
2023/03/02 03:56:13;;;;;;;249.83;128.63;;;;;;;-0.58;100.00;102784.75;4978572;28;20435;-43
2023/03/02 03:58:40;;;;;;;133.47;118.87;;;;;;;-0.54;100.00;102795.09;4979426;28;21118;-47
2023/03/02 04:01:08;;;;;;;170.43;127.33;;;;;;;-0.51;100.00;102790.56;4979327;28;20441;-46
2023/03/02 04:03:37;;;;;;;131.87;119.93;;;;;;;-0.49;100.00;102788.69;4978659;28;20494;-47
2023/03/02 04:06:05;;;;;;;140.97;125.30;;;;;;;-0.49;100.00;102783.47;4982962;28;20521;-45
2023/03/02 04:08:33;;;;;;;208.70;130.40;;;;;;;-0.46;100.00;102783.31;4983177;28;20434;-45
2023/03/02 04:11:01;;;;;;;383.13;146.70;;;;;;;-0.51;100.00;102781.84;4982802;28;20434;-44
2023/03/02 04:13:28;;;;;;;406.43;160.93;;;;;;;-0.47;100.00;102775.50;4982054;28;20450;-44
2023/03/02 04:15:56;;;;;;;243.70;142.10;;;;;;;-0.49;100.00;102778.22;4983005;28;20438;-44
2023/03/02 04:18:24;;;;;;;210.43;128.47;;;;;;;-0.58;100.00;102781.28;4982840;28;20485;-49
2023/03/02 04:20:53;;;;;;;370.53;170.10;;;;;;;-0.58;100.00;102776.91;4982764;28;20435;-50
2023/03/02 04:23:20;;;;;;;172.30;127.70;;;;;;;-0.52;100.00;102774.91;4982484;28;20470;-43
2023/03/02 04:25:48;;;;;;;197.47;129.27;;;;;;;-0.48;100.00;102774.69;4982343;28;20445;-43
2023/03/02 04:28:16;;;;;;;262.07;134.17;;;;;;;-0.47;100.00;102776.34;4985157;28;20446;-46
2023/03/02 04:30:44;;;;;;;246.77;139.40;;;;;;;-0.51;100.00;102776.59;5002082;28;20473;-46
2023/03/02 04:33:12;;;;;;;213.43;128.27;;;;;;;-0.47;100.00;102772.88;5001008;28;21053;-46
2023/03/02 04:35:39;;;;;;;140.87;126.07;;;;;;;-0.43;100.00;102775.28;5002142;28;20494;-45
2023/03/02 04:38:09;;;;;;;170.63;131.47;;;;;;;-0.40;100.00;102776.91;5002113;28;21006;-50
2023/03/02 04:40:36;;;;;;;212.53;130.93;;;;;;;-0.38;100.00;102775.03;5001570;28;20522;-44
2023/03/02 04:43:04;;;;;;;222.33;127.40;;;;;;;-0.36;100.00;102771.41;4994250;28;20464;-43
2023/03/02 04:45:32;;;;;;;141.63;126.90;;;;;;;-0.35;100.00;102775.75;4987645;28;20431;-52
2023/03/02 04:47:59;;;;;;;208.17;126.97;;;;;;;-0.34;100.00;102768.75;4980981;28;20479;-51
2023/03/02 04:50:27;;;;;;;254.50;132.03;;;;;;;-0.37;100.00;102776.75;4982042;28;20485;-46
2023/03/02 04:52:55;;;;;;;291.07;133.07;;;;;;;-0.36;100.00;102767.97;4981865;28;20466;-45
2023/03/02 04:55:26;;;;;;;326.30;139.07;;;;;;;-0.39;100.00;102776.84;4983033;28;20450;-46
2023/03/02 04:57:54;;;;;;;220.30;136.00;;;;;;;-0.40;100.00;102769.03;4982345;28;20430;-46
2023/03/02 05:00:22;;;;;;;129.50;116.77;;;;;;;-0.37;100.00;102766.28;4982298;28;20437;-46
2023/03/02 05:02:50;;;;;;;167.93;120.10;;;;;;;-0.38;100.00;102764.56;4981702;28;20458;-45
2023/03/02 05:05:22;;;;;;;133.03;118.93;;;;;;;-0.39;100.00;102762.88;4981947;28;20443;-49
2023/03/02 05:07:50;;;;;;;130.87;117.60;;;;;;;-0.37;100.00;102758.41;4981590;28;20528;-44
2023/03/02 05:10:19;;;;;;;336.63;133.30;;;;;;;-0.39;100.00;102763.75;4981850;28;20431;-45
2023/03/02 05:15:31;;;;;;;211.33;119.37;;;;;;;-0.44;100.00;102764.88;4980652;28;20447;-46
2023/03/02 05:18:00;;;;;;;118.73;107.90;;;;;;;-0.44;100.00;102757.00;4981629;28;20430;-46
2023/03/02 05:20:29;;;;;;;137.97;114.23;;;;;;;-0.45;100.00;102752.72;4982007;28;20485;-46
2023/03/02 05:22:59;;;;;;;117.37;106.40;;;;;;;-0.46;100.00;102753.63;4981323;28;21011;-47
2023/03/02 05:25:29;;;;;;;178.93;115.37;;;;;;;-0.49;100.00;102751.16;4981478;28;20875;-47
2023/03/02 05:27:58;;;;;;;132.73;106.23;;;;;;;-0.50;100.00;102745.06;4982317;28;20573;-47
2023/03/02 05:30:26;;;;;;;123.43;110.17;;;;;;;-0.53;100.00;102747.84;4981712;28;20466;-46
2023/03/02 05:32:54;;;;;;;112.10;99.83;;;;;;;-0.54;100.00;102747.94;4981165;28;20451;-47
2023/03/02 05:35:22;;;;;;;105.67;93.80;;;;;;;-0.60;100.00;102736.81;4981450;28;20435;-46
2023/03/02 05:37:50;;;;;;;100.53;91.53;;;;;;;-0.63;100.00;102747.44;4981627;28;20462;-47
2023/03/02 05:40:20;;;;;;;98.63;91.03;;;;;;;-0.64;100.00;102745.75;4982056;28;20438;-46
2023/03/02 05:42:49;;;;;;;107.40;90.23;;;;;;;-0.66;100.00;102736.28;4980603;28;20450;-45
2023/03/02 05:45:22;;;;;;;140.67;96.93;;;;;;;-0.70;100.00;102742.59;4981707;28;20445;-45
2023/03/02 05:47:50;;;;;;;100.57;90.87;;;;;;;-0.70;100.00;102735.59;4982041;28;20474;-47
2023/03/02 05:50:18;;;;;;;93.47;85.63;;;;;;;-0.72;100.00;102733.97;4981085;28;20423;-46
2023/03/02 05:52:45;;;;;;;94.80;86.20;;;;;;;-0.78;100.00;102735.13;4981382;28;20459;-48
2023/03/02 05:55:14;;;;;;;85.20;77.57;;;;;;;-0.81;100.00;102737.88;4981667;28;20478;-44
2023/03/02 05:57:43;;;;;;;88.60;81.97;;;;;;;-0.83;100.00;102738.88;4981563;28;20442;-47
2023/03/02 06:00:13;;;;;;;89.90;82.30;;;;;;;-0.90;100.00;102735.72;4981411;28;20435;-47
2023/03/02 06:02:43;;;;;;;94.97;84.87;;;;;;;-0.93;100.00;102735.88;4981550;28;20451;-44
2023/03/02 06:05:13;;;;;;;88.73;79.97;;;;;;;-0.96;100.00;102736.00;5001060;28;20442;-45
2023/03/02 06:07:41;;;;;;;91.93;83.37;;;;;;;-1.04;100.00;102729.44;5000678;28;20844;-47
2023/03/02 06:10:11;;;;;;;91.23;84.40;;;;;;;-1.01;100.00;102732.75;5000907;28;20930;-44
2023/03/02 06:12:38;;;;;;;91.10;83.10;;;;;;;-1.01;100.00;102730.13;5001742;28;20521;-46
2023/03/02 06:15:08;;;;;;;91.77;82.10;;;;;;;-1.01;100.00;102737.13;4999902;28;20462;-44
2023/03/02 06:17:36;;;;;;;85.43;77.37;;;;;;;-1.02;100.00;102736.31;5000741;28;20429;-49
2023/03/02 06:20:09;;;;;;;85.27;78.37;;;;;;;-1.02;100.00;102724.97;5000423;28;20434;-47
2023/03/02 06:22:40;;;;;;;80.73;74.43;;;;;;;-0.99;100.00;102737.94;5000304;28;20447;-45
2023/03/02 06:25:09;;;;;;;81.20;75.03;;;;;;;-0.96;100.00;102736.00;5000318;28;20500;-44
2023/03/02 06:27:38;;;;;;;83.40;76.60;;;;;;;-0.93;100.00;102738.50;5000555;28;20469;-47
2023/03/02 06:30:09;;;;;;;82.77;75.90;;;;;;;-0.90;100.00;102732.25;5000797;28;20434;-49
2023/03/02 06:32:36;;;;;;;78.33;72.73;;;;;;;-0.86;100.00;102729.38;5000105;28;20450;-44
2023/03/02 06:35:08;;;;;;;77.37;72.10;;;;;;;-0.80;100.00;102731.72;4999751;28;20466;-47
2023/03/02 06:37:36;;;;;;;79.87;74.67;;;;;;;-0.76;100.00;102730.66;5000444;28;20430;-45
2023/03/02 06:40:07;;;;;;;75.30;70.13;;;;;;;-0.72;100.00;102731.34;4999987;28;20441;-44
2023/03/02 06:42:35;;;;;;;72.30;67.20;;;;;;;-0.68;100.00;102735.50;5000010;28;20450;-46
2023/03/02 06:45:02;;;;;;;74.67;69.67;;;;;;;-0.68;100.00;102738.97;4998998;28;20466;-46
2023/03/02 06:47:32;;;;;;;73.33;68.80;;;;;;;-0.65;100.00;102730.97;4998503;28;20501;-43
2023/03/02 06:49:59;;;;;;;74.27;69.27;;;;;;;-0.63;100.00;102739.56;4999654;28;20438;-44
2023/03/02 06:52:28;;;;;;;74.33;69.30;;;;;;;-0.62;100.00;102732.56;4998948;28;20466;-45
2023/03/02 06:54:56;;;;;;;74.70;69.80;;;;;;;-0.57;100.00;102734.03;4998012;28;20474;-48
2023/03/02 06:57:24;;;;;;;74.10;69.40;;;;;;;-0.52;100.00;102743.44;4999683;28;20430;-45
2023/03/02 06:59:52;;;;;;;76.80;71.57;;;;;;;-0.46;100.00;102740.53;4999966;28;20460;-44
2023/03/02 07:02:19;;;;;;;72.67;67.73;;;;;;;-0.41;100.00;102733.25;4999218;28;20483;-52
2023/03/02 07:04:47;;;;;;;73.27;68.20;;;;;;;-0.30;100.00;102736.22;4999661;28;20824;-49
2023/03/02 07:07:14;;;;;;;74.37;69.77;;;;;;;-0.18;100.00;102732.97;4999551;28;20436;-46
2023/03/02 07:09:43;;;;;;;72.70;67.90;;;;;;;-0.04;100.00;102736.56;4998592;28;20865;-46
2023/03/02 07:12:11;;;;;;;71.63;66.83;;;;;;;0.12;100.00;102733.13;4998720;28;20450;-44
2023/03/02 07:14:39;;;;;;;75.83;70.83;;;;;;;0.25;100.00;102728.91;4997649;28;20485;-46
2023/03/02 07:17:07;;;;;;;75.13;70.17;;;;;;;0.41;100.00;102730.66;4998717;28;20442;-46
2023/03/02 07:19:37;;;;;;;78.47;73.43;;;;;;;0.54;100.00;102726.41;4999540;28;20433;-47
2023/03/02 07:22:07;;;;;;;79.57;74.37;;;;;;;0.72;100.00;102728.97;4999524;28;20445;-51
2023/03/02 07:24:35;;;;;;;82.87;77.37;;;;;;;0.88;100.00;102729.81;4998014;28;20472;-47
2023/03/02 07:27:04;;;;;;;81.70;76.40;;;;;;;1.03;100.00;102731.56;4998735;28;20811;-46
2023/03/02 07:29:31;;;;;;;93.77;86.37;;;;;;;1.12;100.00;102733.69;4998360;28;20469;-46
2023/03/02 07:31:59;;;;;;;141.77;101.83;;;;;;;1.24;100.00;102722.47;4998122;28;20455;-45
2023/03/02 07:34:27;;;;;;;145.37;98.80;;;;;;;1.29;100.00;102725.66;4998556;28;20493;-46
2023/03/02 07:36:55;;;;;;;102.33;92.70;;;;;;;1.35;100.00;102724.47;4999376;28;20437;-47
2023/03/02 07:39:23;;;;;;;105.47;96.00;;;;;;;1.38;100.00;102722.50;4997779;28;20437;-47
2023/03/02 07:41:50;;;;;;;116.03;96.63;;;;;;;1.44;100.00;102732.66;4998942;28;20812;-49
2023/03/02 07:44:19;;;;;;;134.73;104.77;;;;;;;1.45;100.00;102737.00;4997256;28;20458;-46
2023/03/02 07:46:47;;;;;;;125.13;106.30;;;;;;;1.52;100.00;102732.22;4997957;28;20426;-46
2023/03/02 07:49:15;;;;;;;111.10;100.80;;;;;;;1.52;100.00;102732.22;4998501;28;20501;-44
2023/03/02 07:51:43;;;;;;;110.93;102.33;;;;;;;1.61;100.00;102748.28;4997820;28;20549;-46
2023/03/02 07:54:10;;;;;;;117.00;106.70;;;;;;;1.65;100.00;102744.56;4997625;28;20470;-47
2023/03/02 07:56:38;;;;;;;103.53;95.87;;;;;;;1.72;100.00;102752.09;4997490;28;20450;-43
2023/03/02 07:59:06;;;;;;;115.10;104.33;;;;;;;1.75;100.00;102744.88;4998036;28;20429;-45
2023/03/02 08:01:35;;;;;;;99.07;91.67;;;;;;;1.84;100.00;102757.47;4997683;28;20545;-43
2023/03/02 08:04:02;;;;;;;111.30;100.00;;;;;;;1.86;100.00;102760.84;4997227;28;20476;-44
2023/03/02 08:06:30;;;;;;;101.97;94.60;;;;;;;1.94;100.00;102749.88;4997766;28;20434;-44
2023/03/02 08:08:59;;;;;;;104.33;95.87;;;;;;;1.99;100.00;102768.88;4997255;28;20473;-45
2023/03/02 08:11:27;;;;;;;97.77;92.03;;;;;;;2.08;100.00;102768.31;4998206;28;20450;-47
2023/03/02 08:13:55;;;;;;;99.60;93.77;;;;;;;2.11;100.00;102762.84;4997641;28;20476;-46
2023/03/02 08:16:25;;;;;;;103.13;97.10;;;;;;;2.18;100.00;102770.28;4997342;28;20434;-46
2023/03/02 08:18:54;;;;;;;102.50;96.10;;;;;;;2.29;100.00;102758.25;4997702;28;20437;-45
2023/03/02 08:21:25;;;;;;;101.73;95.90;;;;;;;2.34;100.00;102757.03;4997782;28;20990;-43
2023/03/02 08:23:53;;;;;;;103.20;97.27;;;;;;;2.47;100.00;102757.13;4996932;28;20454;-44
2023/03/02 08:26:21;;;;;;;98.97;93.30;;;;;;;2.57;100.00;102751.19;4997439;28;20915;-45
2023/03/02 08:28:49;;;;;;;100.17;94.47;;;;;;;2.66;100.00;102758.50;4997396;28;20472;-46
2023/03/02 08:31:16;;;;;;;104.07;98.07;;;;;;;2.70;100.00;102752.09;4997356;28;20935;-48
2023/03/02 08:33:45;;;;;;;103.97;98.57;;;;;;;2.81;100.00;102746.16;4996166;28;20470;-44
2023/03/02 08:36:16;;;;;;;108.13;102.33;;;;;;;2.88;100.00;102743.97;4997262;28;20849;-50
2023/03/02 08:38:45;;;;;;;110.40;103.90;;;;;;;2.99;100.00;102739.69;4997890;28;20437;-48
2023/03/02 08:41:15;;;;;;;107.37;101.57;;;;;;;3.10;100.00;102745.16;4997644;28;20436;-44
2023/03/02 08:43:42;;;;;;;107.77;101.60;;;;;;;3.15;100.00;102744.81;4995855;28;20489;-44
2023/03/02 08:46:15;;;;;;;108.67;102.77;;;;;;;3.29;100.00;102739.50;4996676;28;20433;-45
2023/03/02 08:48:42;;;;;;;108.47;102.13;;;;;;;3.37;100.00;102746.91;4997173;28;20501;-44
2023/03/02 08:51:15;;;;;;;108.40;102.30;;;;;;;3.37;100.00;102745.13;5000093;28;20488;-47
2023/03/02 08:53:46;;;;;;;107.37;101.50;;;;;;;3.48;100.00;102745.25;5000915;28;20480;-44
2023/03/02 08:56:18;;;;;;;105.93;99.93;;;;;;;3.59;100.00;102745.38;5001337;28;20452;-48
2023/03/02 08:58:46;;;;;;;100.20;94.63;;;;;;;3.71;100.00;102744.53;5001799;28;20655;-46
2023/03/02 09:01:15;;;;;;;101.97;95.70;;;;;;;3.84;100.00;102742.78;5001743;28;20863;-47
2023/03/02 09:03:43;;;;;;;105.57;99.47;;;;;;;3.97;100.00;102742.78;5001115;28;20469;-47
2023/03/02 09:06:11;;;;;;;106.80;100.63;;;;;;;4.10;100.00;102738.34;5001606;28;20440;-46
2023/03/02 09:08:40;;;;;;;108.47;102.40;;;;;;;4.22;100.00;102742.78;5001469;28;20504;-45
2023/03/02 09:11:08;;;;;;;109.10;103.07;;;;;;;4.29;100.00;102738.75;5001328;28;20434;-47
2023/03/02 09:13:36;;;;;;;113.77;107.73;;;;;;;4.32;100.00;102735.06;5001480;28;20920;-46
2023/03/02 09:16:05;;;;;;;116.20;109.33;;;;;;;4.48;100.00;102733.00;5001521;28;20434;-48
2023/03/02 09:18:33;;;;;;;114.53;108.23;;;;;;;4.51;100.00;102730.13;5001332;28;20739;-50
2023/03/02 09:21:01;;;;;;;113.47;107.20;;;;;;;4.39;100.00;102731.84;5001078;28;20434;-45
2023/03/02 09:23:29;;;;;;;112.90;106.70;;;;;;;4.20;100.00;102723.56;4999710;28;20477;-47
2023/03/02 09:25:59;;;;;;;111.93;105.27;;;;;;;4.07;100.00;102724.50;5000292;28;20442;-48
2023/03/02 09:28:26;;;;;;;108.47;102.33;;;;;;;4.04;100.00;102722.91;5000610;28;20430;-47
2023/03/02 09:30:57;;;;;;;114.83;108.13;;;;;;;4.11;100.00;102728.63;5000121;28;20484;-45
2023/03/02 09:33:25;;;;;;;106.47;100.40;;;;;;;4.13;100.00;102721.44;4999556;28;20454;-44
2023/03/02 09:35:53;;;;;;;106.70;100.73;;;;;;;4.18;100.00;102721.97;5000541;28;20434;-47
2023/03/02 09:38:21;;;;;;;106.40;98.60;;;;;;;4.06;100.00;102717.56;5000616;28;20508;-46
2023/03/02 09:41:07;;;;;;;109.13;102.73;;;;;;;4.15;100.00;102723.00;5000405;28;20943;-44
2023/03/02 09:43:46;;;;;;;105.13;99.43;;;;;;;4.03;100.00;102723.03;5000348;28;20472;-45
2023/03/02 09:46:22;;;;;;;110.40;101.10;;;;;;;3.96;100.00;102719.97;5000481;28;20438;-44
2023/03/02 09:49:07;;;;;;;116.77;109.60;;;;;;;4.04;100.00;102722.06;4999898;28;20442;-45
2023/03/02 09:51:42;;;;;;;117.00;108.60;;;;;;;4.16;100.00;102723.84;4999796;28;20472;-47
2023/03/02 09:54:11;;;;;;;111.33;103.50;;;;;;;4.37;100.00;102723.22;4999715;28;20472;-49
2023/03/02 09:56:44;;;;;;;118.50;109.27;;;;;;;4.47;100.00;102715.47;5000908;28;20438;-44
2023/03/02 09:59:20;;;;;;;117.57;109.17;;;;;;;4.68;100.00;102721.03;5000419;28;20430;-46
2023/03/02 10:01:53;;;;;;;126.87;118.50;;;;;;;4.65;100.00;102719.44;4999858;28;20534;-49
2023/03/02 10:04:25;;;;;;;122.80;115.70;;;;;;;4.73;100.00;102709.16;4999710;28;20477;-48
2023/03/02 10:06:57;;;;;;;116.23;109.27;;;;;;;4.76;100.00;102711.59;5000025;28;20924;-45
2023/03/02 10:09:25;;;;;;;119.20;112.03;;;;;;;4.65;100.00;102714.16;4999565;28;20474;-45
2023/03/02 10:12:23;;;;;;;122.97;115.67;;;;;;;4.64;100.00;102706.34;4999289;28;20453;-45
2023/03/02 10:14:59;;;;;;;121.40;115.00;;;;;;;4.82;100.00;102711.13;4999234;28;20489;-47
2023/03/02 10:17:42;;;;;;;120.23;113.73;;;;;;;5.10;100.00;102719.69;4999189;28;20429;-44
2023/03/02 10:20:17;;;;;;;118.40;111.90;;;;;;;5.13;100.00;102717.69;4999866;28;20441;-45
2023/03/02 10:22:49;;;;;;;123.10;115.80;;;;;;;5.34;100.00;102717.88;4999537;28;20536;-46
2023/03/02 10:25:27;;;;;;;120.37;113.57;;;;;;;5.37;100.00;102712.38;4999759;28;20481;-44
2023/03/02 10:28:00;;;;;;;123.60;116.87;;;;;;;5.34;100.00;102716.09;4999492;28;20448;-45
2023/03/02 10:30:31;;;;;;;123.43;116.97;;;;;;;5.45;100.00;102715.28;4999416;28;20482;-46
2023/03/02 10:33:03;;;;;;;126.27;119.80;;;;;;;5.49;100.00;102716.75;4998515;28;20521;-45
2023/03/02 10:35:31;;;;;;;128.37;121.03;;;;;;;5.61;100.00;102712.31;4999114;28;20795;-47
2023/03/02 10:38:04;;;;;;;120.63;114.13;;;;;;;5.51;100.00;102713.00;4999165;28;20820;-45
2023/03/02 10:40:43;;;;;;;129.13;122.03;;;;;;;5.66;100.00;102708.34;4999375;28;20462;-48
2023/03/02 10:43:16;;;;;;;133.63;126.10;;;;;;;5.65;100.00;102704.00;4999159;28;20461;-50
2023/03/02 10:45:45;;;;;;;128.03;121.00;;;;;;;5.84;100.00;102698.16;4999205;28;20432;-49
2023/03/02 10:48:14;;;;;;;127.00;120.23;;;;;;;6.07;100.00;102711.34;4998964;28;20444;-46
2023/03/02 10:50:43;;;;;;;127.50;120.73;;;;;;;6.08;100.00;102705.09;4998515;28;20484;-47
2023/03/02 10:53:18;;;;;;;128.17;121.23;;;;;;;6.25;100.00;102701.09;4997913;28;20844;-44
2023/03/02 10:55:47;;;;;;;127.70;120.93;;;;;;;6.44;100.00;102695.19;4998516;28;20430;-46
2023/03/02 10:58:24;;;;;;;120.00;113.80;;;;;;;6.50;100.00;102689.41;4998621;28;20434;-44
2023/03/02 11:00:57;;;;;;;119.93;113.30;;;;;;;6.63;100.00;102695.41;4998461;28;20497;-45
2023/03/02 11:03:25;;;;;;;131.40;124.60;;;;;;;6.47;100.00;102690.50;4998135;28;20528;-46
2023/03/02 11:05:56;;;;;;;125.73;119.13;;;;;;;6.55;100.00;102692.50;4998562;28;20437;-44
2023/03/02 11:08:26;;;;;;;127.90;120.37;;;;;;;6.65;100.00;102694.31;4993036;28;20968;-50